createdAt,value
2018-09-30T00:00:53.714Z,0
2018-09-30T00:01:55.054Z,0
2018-09-30T00:02:56.420Z,0
2018-09-30T00:03:57.772Z,0
2018-09-30T00:04:59.115Z,0
2018-09-30T00:06:00.464Z,0
2018-09-30T00:07:01.821Z,0
2018-09-30T00:08:03.175Z,0
2018-09-30T00:09:04.522Z,0
2018-09-30T00:10:05.881Z,0
2018-09-30T00:11:07.219Z,0
2018-09-30T00:12:08.583Z,0
2018-09-30T00:13:09.939Z,0
2018-09-30T00:14:11.287Z,0
2018-09-30T00:15:12.648Z,0
2018-09-30T00:16:13.995Z,0
2018-09-30T00:17:15.350Z,0
2018-09-30T00:18:16.705Z,0
2018-09-30T00:19:18.061Z,0
2018-09-30T00:20:19.421Z,0
2018-09-30T00:21:20.770Z,0
2018-09-30T00:22:22.119Z,0
2018-09-30T00:23:23.479Z,0
2018-09-30T00:24:24.868Z,0
2018-09-30T00:25:26.214Z,0
2018-09-30T00:26:27.569Z,0
2018-09-30T00:27:28.928Z,0
2018-09-30T00:28:30.284Z,0
2018-09-30T00:29:31.635Z,0
2018-09-30T00:30:32.993Z,0
2018-09-30T00:31:34.335Z,0
2018-09-30T00:32:35.690Z,0
2018-09-30T00:33:37.049Z,0
2018-09-30T00:34:38.400Z,0
2018-09-30T00:35:39.741Z,0
2018-09-30T00:36:41.097Z,0
2018-09-30T00:37:42.453Z,0
2018-09-30T00:38:43.798Z,0
2018-09-30T00:39:45.143Z,0
2018-09-30T00:40:46.504Z,0
2018-09-30T00:41:47.862Z,0
2018-09-30T00:42:49.210Z,0
2018-09-30T00:43:50.566Z,0
2018-09-30T00:44:51.932Z,0
2018-09-30T00:45:53.269Z,0
2018-09-30T00:46:54.633Z,0
2018-09-30T00:47:55.983Z,0
2018-09-30T00:48:57.343Z,0
2018-09-30T00:49:58.699Z,0
2018-09-30T00:51:00.057Z,0
2018-09-30T00:52:01.420Z,0
2018-09-30T00:53:02.768Z,0
2018-09-30T00:54:04.126Z,0
2018-09-30T00:55:05.483Z,0
2018-09-30T00:56:06.831Z,0
2018-09-30T00:57:08.186Z,0
2018-09-30T00:58:09.565Z,0
2018-09-30T00:59:10.929Z,0
2018-09-30T01:00:12.284Z,0
2018-09-30T01:01:13.643Z,0
2018-09-30T01:02:15.014Z,0
2018-09-30T01:03:16.359Z,0
2018-09-30T01:04:17.710Z,0
2018-09-30T01:05:19.063Z,0
2018-09-30T01:06:20.410Z,0
2018-09-30T01:07:21.763Z,0
2018-09-30T01:08:23.119Z,0
2018-09-30T01:09:24.471Z,0
2018-09-30T01:10:25.825Z,0
2018-09-30T01:11:27.201Z,0
2018-09-30T01:12:28.556Z,0
2018-09-30T01:13:29.905Z,0
2018-09-30T01:14:31.319Z,0
2018-09-30T01:15:32.679Z,0
2018-09-30T01:16:34.024Z,0
2018-09-30T01:17:35.424Z,0
2018-09-30T01:18:36.779Z,0
2018-09-30T01:19:38.130Z,0
2018-09-30T01:20:39.505Z,0
2018-09-30T01:21:40.849Z,0
2018-09-30T01:22:42.205Z,0
2018-09-30T01:23:43.548Z,0
2018-09-30T01:24:44.924Z,0
2018-09-30T01:25:46.286Z,0
2018-09-30T01:26:47.643Z,0
2018-09-30T01:27:49.018Z,0
2018-09-30T01:28:50.369Z,0
2018-09-30T01:29:51.729Z,0
2018-09-30T01:30:53.084Z,0
2018-09-30T01:31:54.440Z,0
2018-09-30T01:32:55.795Z,0
2018-09-30T01:33:57.172Z,0
2018-09-30T01:34:58.526Z,0
2018-09-30T01:35:59.888Z,0
2018-09-30T01:37:01.236Z,0
2018-09-30T01:38:02.609Z,0
2018-09-30T01:39:03.969Z,0
2018-09-30T01:40:05.344Z,0
2018-09-30T01:41:06.703Z,0
2018-09-30T01:42:08.069Z,0
2018-09-30T01:43:09.414Z,0
2018-09-30T01:44:10.771Z,0
2018-09-30T01:45:12.134Z,0
2018-09-30T01:46:13.485Z,0
2018-09-30T01:47:14.845Z,0
2018-09-30T01:48:16.200Z,0
2018-09-30T01:49:17.565Z,0
2018-09-30T01:50:18.915Z,0
2018-09-30T01:51:20.269Z,0
2018-09-30T01:52:21.618Z,0
2018-09-30T01:53:22.970Z,0
2018-09-30T01:54:24.332Z,0
2018-09-30T01:55:25.677Z,0
2018-09-30T01:56:27.032Z,0
2018-09-30T01:57:28.407Z,0
2018-09-30T01:58:29.765Z,0
2018-09-30T01:59:31.115Z,0
2018-09-30T02:00:32.472Z,0
2018-09-30T02:01:33.822Z,0
2018-09-30T02:02:35.176Z,0
2018-09-30T02:03:36.540Z,0
2018-09-30T02:04:37.901Z,0
2018-09-30T02:05:39.267Z,0
2018-09-30T02:06:40.615Z,0
2018-09-30T02:07:41.991Z,0
2018-09-30T02:08:43.466Z,0
2018-09-30T02:09:44.932Z,0
2018-09-30T02:10:46.300Z,0
2018-09-30T02:11:47.645Z,0
2018-09-30T02:12:49.125Z,0
2018-09-30T02:13:50.487Z,0
2018-09-30T02:14:51.831Z,0
2018-09-30T02:15:53.195Z,0
2018-09-30T02:16:54.552Z,0
2018-09-30T02:17:55.908Z,0
2018-09-30T02:18:57.275Z,0
2018-09-30T02:19:58.640Z,0
2018-09-30T02:21:00.002Z,0
2018-09-30T02:22:01.350Z,0
2018-09-30T02:23:02.696Z,0
2018-09-30T02:24:04.056Z,0
2018-09-30T02:25:05.404Z,0
2018-09-30T02:26:06.762Z,0
2018-09-30T02:27:08.126Z,0
2018-09-30T02:28:09.506Z,0
2018-09-30T02:29:10.872Z,0
2018-09-30T02:30:12.236Z,0
2018-09-30T02:31:13.590Z,0
2018-09-30T02:32:14.948Z,0
2018-09-30T02:33:16.295Z,0
2018-09-30T02:34:17.650Z,0
2018-09-30T02:35:19.005Z,0
2018-09-30T02:36:20.366Z,0
2018-09-30T02:37:21.721Z,0
2018-09-30T02:38:23.085Z,0
2018-09-30T02:39:24.450Z,0
2018-09-30T02:40:25.797Z,0
2018-09-30T02:41:27.142Z,0
2018-09-30T02:42:28.506Z,0
2018-09-30T02:43:29.862Z,0
2018-09-30T02:44:31.207Z,0
2018-09-30T02:45:32.546Z,0
2018-09-30T02:46:33.909Z,0
2018-09-30T02:47:35.252Z,0
2018-09-30T02:48:36.613Z,0
2018-09-30T02:49:37.966Z,0
2018-09-30T02:50:39.327Z,0
2018-09-30T02:51:40.682Z,0
2018-09-30T02:52:42.033Z,0
2018-09-30T02:53:43.400Z,0
2018-09-30T02:54:44.752Z,0
2018-09-30T02:55:46.100Z,0
2018-09-30T02:56:47.457Z,0
2018-09-30T02:57:48.812Z,0
2018-09-30T02:58:50.157Z,0
2018-09-30T02:59:51.508Z,0
2018-09-30T03:00:52.876Z,0
2018-09-30T03:01:54.227Z,0
2018-09-30T03:02:55.582Z,0
2018-09-30T03:03:56.942Z,0
2018-09-30T03:04:58.309Z,0
2018-09-30T03:05:59.664Z,0
2018-09-30T03:07:01.016Z,0
2018-09-30T03:08:02.367Z,0
2018-09-30T03:09:03.845Z,0
2018-09-30T03:10:05.196Z,0
2018-09-30T03:11:06.561Z,0
2018-09-30T03:12:07.928Z,0
2018-09-30T03:13:09.278Z,0
2018-09-30T03:14:10.637Z,0
2018-09-30T03:15:11.986Z,0
2018-09-30T03:16:13.334Z,0
2018-09-30T03:17:14.691Z,0
2018-09-30T03:18:16.027Z,0
2018-09-30T03:19:17.386Z,0
2018-09-30T03:20:18.744Z,0
2018-09-30T03:21:20.112Z,0
2018-09-30T03:22:21.464Z,0
2018-09-30T03:23:22.815Z,0
2018-09-30T03:24:24.177Z,0
2018-09-30T03:25:25.530Z,0
2018-09-30T03:26:26.891Z,0
2018-09-30T03:27:28.252Z,0
2018-09-30T03:28:29.601Z,0
2018-09-30T03:29:30.960Z,0
2018-09-30T03:30:32.307Z,0
2018-09-30T03:31:33.669Z,0
2018-09-30T03:32:35.012Z,0
2018-09-30T03:33:36.371Z,0
2018-09-30T03:34:37.726Z,0
2018-09-30T03:35:39.082Z,0
2018-09-30T03:36:40.443Z,0
2018-09-30T03:37:41.835Z,0
2018-09-30T03:38:43.185Z,0
2018-09-30T03:39:44.597Z,0
2018-09-30T03:40:45.861Z,0
2018-09-30T03:41:47.221Z,0
2018-09-30T03:42:48.564Z,0
2018-09-30T03:43:49.916Z,0
2018-09-30T03:44:51.263Z,0
2018-09-30T03:45:52.621Z,0
2018-09-30T03:46:54.000Z,0
2018-09-30T03:47:55.346Z,0
2018-09-30T03:48:56.703Z,0
2018-09-30T03:49:58.077Z,0
2018-09-30T03:50:59.449Z,0
2018-09-30T03:52:00.795Z,0
2018-09-30T03:53:02.145Z,0
2018-09-30T03:54:03.500Z,0
2018-09-30T03:55:04.846Z,0
2018-09-30T03:56:06.203Z,0
2018-09-30T03:57:07.567Z,0
2018-09-30T03:58:08.941Z,0
2018-09-30T03:59:10.358Z,0
2018-09-30T04:00:11.739Z,0
2018-09-30T04:01:13.101Z,0
2018-09-30T04:02:14.492Z,0
2018-09-30T04:03:15.857Z,0
2018-09-30T04:04:17.235Z,0
2018-09-30T04:05:18.584Z,0
2018-09-30T04:06:19.943Z,0
2018-09-30T04:07:21.300Z,0
2018-09-30T04:08:22.725Z,0
2018-09-30T04:09:24.116Z,0
2018-09-30T04:10:25.503Z,0
2018-09-30T04:11:26.867Z,0
2018-09-30T04:12:28.227Z,0
2018-09-30T04:13:29.608Z,0
2018-09-30T04:14:30.976Z,0
2018-09-30T04:15:32.330Z,0
2018-09-30T04:16:33.705Z,0
2018-09-30T04:17:35.152Z,0
2018-09-30T04:18:36.407Z,0
2018-09-30T04:19:38.467Z,0
2018-09-30T04:20:39.848Z,0
2018-09-30T04:21:41.201Z,0
2018-09-30T04:22:42.604Z,0
2018-09-30T04:23:43.964Z,0
2018-09-30T04:24:45.320Z,0
2018-09-30T04:25:46.668Z,0
2018-09-30T04:26:48.055Z,0
2018-09-30T04:27:49.481Z,0
2018-09-30T04:28:50.901Z,0
2018-09-30T04:29:52.282Z,0
2018-09-30T04:30:53.647Z,0
2018-09-30T04:31:55.110Z,0
2018-09-30T04:32:56.507Z,0
2018-09-30T04:33:57.872Z,0
2018-09-30T04:34:59.256Z,0
2018-09-30T04:36:00.642Z,0
2018-09-30T04:37:02.002Z,0
2018-09-30T04:38:03.402Z,0
2018-09-30T04:39:04.781Z,0
2018-09-30T04:40:06.196Z,0
2018-09-30T04:41:08.118Z,0
2018-09-30T04:42:09.486Z,0
2018-09-30T04:43:10.852Z,0
2018-09-30T04:44:12.211Z,0
2018-09-30T04:45:13.606Z,0
2018-09-30T04:46:14.983Z,0
2018-09-30T04:47:16.388Z,0
2018-09-30T04:48:17.733Z,0
2018-09-30T04:49:19.110Z,0
2018-09-30T04:50:20.461Z,0
2018-09-30T04:51:21.820Z,0
2018-09-30T04:52:23.185Z,0
2018-09-30T04:53:24.546Z,0
2018-09-30T04:54:25.911Z,0
2018-09-30T04:55:27.300Z,0
2018-09-30T04:56:28.705Z,0
2018-09-30T04:57:30.095Z,0
2018-09-30T04:58:31.492Z,0
2018-09-30T04:59:32.850Z,0
2018-09-30T05:00:34.217Z,0
2018-09-30T05:01:35.566Z,0
2018-09-30T05:02:36.911Z,0
2018-09-30T05:03:38.282Z,0
2018-09-30T05:04:39.670Z,0
2018-09-30T05:05:41.079Z,0
2018-09-30T05:06:42.427Z,0
2018-09-30T05:07:43.818Z,0
2018-09-30T05:08:45.179Z,0
2018-09-30T05:09:46.567Z,0
2018-09-30T05:10:47.926Z,0
2018-09-30T05:11:49.327Z,0
2018-09-30T05:12:50.680Z,5
2018-09-30T05:13:52.041Z,5
2018-09-30T05:14:53.395Z,5
2018-09-30T05:15:54.789Z,5
2018-09-30T05:16:56.063Z,5
2018-09-30T05:17:57.411Z,11
2018-09-30T05:18:58.767Z,11
2018-09-30T05:20:00.131Z,11
2018-09-30T05:21:01.478Z,11
2018-09-30T05:22:02.890Z,16
2018-09-30T05:23:04.200Z,16
2018-09-30T05:24:05.551Z,16
2018-09-30T05:25:06.912Z,22
2018-09-30T05:26:08.263Z,22
2018-09-30T05:27:09.624Z,22
2018-09-30T05:28:10.981Z,28
2018-09-30T05:29:12.336Z,28
2018-09-30T05:30:13.680Z,28
2018-09-30T05:31:15.092Z,33
2018-09-30T05:32:16.386Z,33
2018-09-30T05:33:17.739Z,39
2018-09-30T05:34:19.096Z,39
2018-09-30T05:35:20.449Z,45
2018-09-30T05:36:21.803Z,45
2018-09-30T05:37:23.148Z,45
2018-09-30T05:38:24.512Z,50
2018-09-30T05:39:25.861Z,50
2018-09-30T05:40:27.218Z,56
2018-09-30T05:41:28.581Z,56
2018-09-30T05:42:29.954Z,61
2018-09-30T05:43:31.306Z,61
2018-09-30T05:44:32.658Z,67
2018-09-30T05:45:34.012Z,67
2018-09-30T05:46:35.374Z,73
2018-09-30T05:47:36.722Z,73
2018-09-30T05:48:38.094Z,78
2018-09-30T05:49:39.451Z,78
2018-09-30T05:50:40.798Z,78
2018-09-30T05:51:42.167Z,84
2018-09-30T05:52:43.527Z,84
2018-09-30T05:53:44.877Z,90
2018-09-30T05:54:46.243Z,90
2018-09-30T05:55:47.587Z,95
2018-09-30T05:56:48.950Z,95
2018-09-30T05:57:50.316Z,101
2018-09-30T05:58:51.657Z,101
2018-09-30T05:59:53.010Z,106
2018-09-30T06:00:54.367Z,106
2018-09-30T06:01:55.726Z,106
2018-09-30T06:02:57.082Z,112
2018-09-30T06:03:58.526Z,112
2018-09-30T06:04:59.798Z,118
2018-09-30T06:06:01.150Z,118
2018-09-30T06:07:02.499Z,118
2018-09-30T06:08:03.859Z,123
2018-09-30T06:09:05.267Z,123
2018-09-30T06:10:06.581Z,129
2018-09-30T06:11:08.063Z,129
2018-09-30T06:12:09.416Z,129
2018-09-30T06:13:10.774Z,135
2018-09-30T06:14:12.187Z,135
2018-09-30T06:15:13.482Z,140
2018-09-30T06:16:14.842Z,140
2018-09-30T06:17:16.192Z,140
2018-09-30T06:18:17.562Z,146
2018-09-30T06:19:18.930Z,146
2018-09-30T06:20:20.278Z,151
2018-09-30T06:21:21.623Z,151
2018-09-30T06:22:22.974Z,157
2018-09-30T06:23:24.325Z,157
2018-09-30T06:24:25.697Z,157
2018-09-30T06:25:27.050Z,163
2018-09-30T06:26:28.437Z,163
2018-09-30T06:27:29.767Z,163
2018-09-30T06:28:31.108Z,168
2018-09-30T06:29:32.482Z,168
2018-09-30T06:30:33.831Z,168
2018-09-30T06:31:35.230Z,174
2018-09-30T06:32:36.557Z,174
2018-09-30T06:33:37.951Z,174
2018-09-30T06:34:39.333Z,180
2018-09-30T06:35:41.180Z,180
2018-09-30T06:36:42.558Z,185
2018-09-30T06:37:43.907Z,185
2018-09-30T06:38:45.280Z,185
2018-09-30T06:39:46.615Z,185
2018-09-30T06:40:47.982Z,191
2018-09-30T06:41:49.329Z,191
2018-09-30T06:42:50.678Z,191
2018-09-30T06:43:52.034Z,196
2018-09-30T06:44:53.404Z,196
2018-09-30T06:45:54.752Z,196
2018-09-30T06:46:56.103Z,196
2018-09-30T06:47:57.454Z,202
2018-09-30T06:48:58.816Z,202
2018-09-30T06:50:00.169Z,208
2018-09-30T06:51:01.534Z,270
2018-09-30T06:52:02.888Z,365
2018-09-30T06:53:04.243Z,388
2018-09-30T06:54:05.599Z,393
2018-09-30T06:55:06.954Z,399
2018-09-30T06:56:08.328Z,410
2018-09-30T06:57:09.694Z,416
2018-09-30T06:58:11.067Z,421
2018-09-30T06:59:12.427Z,427
2018-09-30T07:00:13.779Z,433
2018-09-30T07:01:15.137Z,433
2018-09-30T07:02:16.489Z,438
2018-09-30T07:03:17.851Z,444
2018-09-30T07:04:19.222Z,455
2018-09-30T07:05:20.583Z,455
2018-09-30T07:06:21.948Z,466
2018-09-30T07:07:23.305Z,466
2018-09-30T07:08:24.658Z,472
2018-09-30T07:09:26.022Z,478
2018-09-30T07:10:27.368Z,478
2018-09-30T07:11:28.737Z,478
2018-09-30T07:12:30.093Z,483
2018-09-30T07:13:31.463Z,489
2018-09-30T07:14:32.823Z,495
2018-09-30T07:15:34.203Z,506
2018-09-30T07:16:35.571Z,523
2018-09-30T07:17:36.927Z,556
2018-09-30T07:18:38.289Z,618
2018-09-30T07:19:39.661Z,697
2018-09-30T07:20:41.032Z,776
2018-09-30T07:21:42.399Z,883
2018-09-30T07:22:43.815Z,939
2018-09-30T07:23:45.094Z,950
2018-09-30T07:24:46.455Z,995
2018-09-30T07:25:47.818Z,1046
2018-09-30T07:26:49.184Z,1080
2018-09-30T07:27:50.556Z,1113
2018-09-30T07:28:51.920Z,1136
2018-09-30T07:29:53.292Z,1158
2018-09-30T07:30:54.668Z,1209
2018-09-30T07:31:56.047Z,1271
2018-09-30T07:32:57.412Z,1327
2018-09-30T07:33:58.774Z,1355
2018-09-30T07:35:00.158Z,1434
2018-09-30T07:36:01.537Z,1462
2018-09-30T07:37:02.903Z,1518
2018-09-30T07:38:04.283Z,1552
2018-09-30T07:39:05.663Z,1591
2018-09-30T07:40:07.054Z,1496
2018-09-30T07:41:08.415Z,1321
2018-09-30T07:42:09.780Z,1276
2018-09-30T07:43:11.148Z,1226
2018-09-30T07:44:12.515Z,1203
2018-09-30T07:45:13.888Z,1282
2018-09-30T07:46:15.260Z,1305
2018-09-30T07:47:16.624Z,1299
2018-09-30T07:48:18.000Z,1310
2018-09-30T07:49:19.369Z,1299
2018-09-30T07:50:20.747Z,1316
2018-09-30T07:51:22.112Z,1327
2018-09-30T07:52:23.556Z,1299
2018-09-30T07:53:24.873Z,1248
2018-09-30T07:54:26.258Z,1153
2018-09-30T07:55:27.621Z,1220
2018-09-30T07:56:28.999Z,1310
2018-09-30T07:57:30.368Z,1361
2018-09-30T07:58:31.755Z,1395
2018-09-30T07:59:33.125Z,1406
2018-09-30T08:00:43.758Z,1378
2018-09-30T08:01:45.127Z,1400
2018-09-30T08:02:46.505Z,1451
2018-09-30T08:03:47.870Z,1434
2018-09-30T08:04:49.250Z,1423
2018-09-30T08:05:50.625Z,1440
2018-09-30T08:06:51.998Z,1428
2018-09-30T08:07:53.385Z,1428
2018-09-30T08:08:54.744Z,1383
2018-09-30T08:09:56.110Z,1355
2018-09-30T08:10:57.483Z,1389
2018-09-30T08:11:58.882Z,1451
2018-09-30T08:13:00.266Z,1473
2018-09-30T08:14:01.755Z,1428
2018-09-30T08:15:03.118Z,1417
2018-09-30T08:16:04.489Z,1485
2018-09-30T08:17:05.876Z,1485
2018-09-30T08:18:07.275Z,1485
2018-09-30T08:19:08.639Z,1541
2018-09-30T08:20:10.018Z,1558
2018-09-30T08:21:11.409Z,1586
2018-09-30T08:22:12.784Z,1586
2018-09-30T08:23:14.145Z,1580
2018-09-30T08:24:15.626Z,1614
2018-09-30T08:25:16.855Z,1670
2018-09-30T08:26:18.255Z,1698
2018-09-30T08:27:19.626Z,1620
2018-09-30T08:28:21.000Z,1591
2018-09-30T08:29:22.393Z,1620
2018-09-30T08:30:23.769Z,1597
2018-09-30T08:31:25.166Z,1715
2018-09-30T08:32:26.541Z,1749
2018-09-30T08:33:27.920Z,1732
2018-09-30T08:34:29.321Z,1721
2018-09-30T08:35:30.718Z,1726
2018-09-30T08:36:32.105Z,1693
2018-09-30T08:37:33.490Z,1715
2018-09-30T08:38:34.904Z,1681
2018-09-30T08:39:36.410Z,1704
2018-09-30T08:40:37.686Z,1738
2018-09-30T08:41:39.090Z,1698
2018-09-30T08:42:40.495Z,1726
2018-09-30T08:43:41.919Z,1766
2018-09-30T08:44:43.215Z,1788
2018-09-30T08:45:44.678Z,1794
2018-09-30T08:46:46.036Z,1749
2018-09-30T08:47:47.473Z,1743
2018-09-30T08:48:48.786Z,1828
2018-09-30T08:49:50.180Z,1861
2018-09-30T08:50:51.560Z,1873
2018-09-30T08:51:52.955Z,1878
2018-09-30T08:52:54.365Z,1822
2018-09-30T08:53:55.858Z,1760
2018-09-30T08:54:57.178Z,1867
2018-09-30T08:55:58.601Z,1929
2018-09-30T08:57:00.068Z,1946
2018-09-30T08:58:01.450Z,2036
2018-09-30T08:59:02.872Z,2081
2018-09-30T09:00:04.259Z,2019
2018-09-30T09:01:05.634Z,2030
2018-09-30T09:02:07.025Z,1968
2018-09-30T09:03:08.418Z,2030
2018-09-30T09:04:09.793Z,2008
2018-09-30T09:05:11.274Z,1985
2018-09-30T09:06:12.661Z,1991
2018-09-30T09:07:14.055Z,1991
2018-09-30T09:08:15.470Z,2002
2018-09-30T09:09:16.886Z,2070
2018-09-30T09:10:18.265Z,2058
2018-09-30T09:11:19.665Z,2092
2018-09-30T09:12:21.044Z,2137
2018-09-30T09:13:22.421Z,2075
2018-09-30T09:14:23.804Z,2160
2018-09-30T09:15:25.252Z,2137
2018-09-30T09:16:26.584Z,2098
2018-09-30T09:17:27.971Z,2036
2018-09-30T09:18:29.344Z,2064
2018-09-30T09:19:30.759Z,2148
2018-09-30T09:20:32.136Z,2188
2018-09-30T09:21:33.531Z,2193
2018-09-30T09:22:34.915Z,2188
2018-09-30T09:23:37.619Z,2165
2018-09-30T09:24:41.107Z,2199
2018-09-30T09:25:42.489Z,2227
2018-09-30T09:26:43.938Z,2227
2018-09-30T09:27:45.320Z,2227
2018-09-30T09:28:46.695Z,2216
2018-09-30T09:29:48.587Z,2227
2018-09-30T09:30:50.027Z,2289
2018-09-30T09:31:51.417Z,2272
2018-09-30T09:32:52.840Z,2261
2018-09-30T09:33:54.186Z,2300
2018-09-30T09:34:55.586Z,2317
2018-09-30T09:35:56.948Z,2289
2018-09-30T09:36:58.325Z,2317
2018-09-30T09:37:59.721Z,2373
2018-09-30T09:39:01.099Z,2323
2018-09-30T09:40:02.489Z,2311
2018-09-30T09:41:03.866Z,2306
2018-09-30T09:42:05.239Z,2278
2018-09-30T09:43:06.625Z,2295
2018-09-30T09:44:08.011Z,2261
2018-09-30T09:45:09.389Z,2272
2018-09-30T09:46:10.776Z,2289
2018-09-30T09:47:12.169Z,2300
2018-09-30T09:48:14.170Z,2238
2018-09-30T09:49:15.555Z,2233
2018-09-30T09:50:16.953Z,2272
2018-09-30T09:51:18.334Z,2295
2018-09-30T09:52:19.712Z,2340
2018-09-30T09:53:21.099Z,2317
2018-09-30T09:54:22.472Z,2340
2018-09-30T09:55:23.861Z,2323
2018-09-30T09:56:25.239Z,2278
2018-09-30T09:57:26.624Z,2340
2018-09-30T09:58:28.006Z,2356
2018-09-30T09:59:29.456Z,2311
2018-09-30T10:00:30.777Z,2323
2018-09-30T10:01:32.192Z,2278
2018-09-30T10:02:33.572Z,2368
2018-09-30T10:03:36.726Z,2407
2018-09-30T10:04:38.113Z,2368
2018-09-30T10:05:40.167Z,2407
2018-09-30T10:06:42.641Z,2469
2018-09-30T10:07:44.676Z,2407
2018-09-30T10:08:46.070Z,2328
2018-09-30T10:09:47.458Z,2278
2018-09-30T10:10:51.370Z,2413
2018-09-30T10:11:52.752Z,2424
2018-09-30T10:12:54.141Z,2323
2018-09-30T10:13:55.538Z,2295
2018-09-30T10:14:56.930Z,2368
2018-09-30T10:15:58.316Z,2362
2018-09-30T10:16:59.707Z,2373
2018-09-30T10:18:01.080Z,2396
2018-09-30T10:19:02.470Z,2452
2018-09-30T10:20:03.850Z,2424
2018-09-30T10:21:05.245Z,2379
2018-09-30T10:22:06.622Z,2362
2018-09-30T10:23:08.017Z,2317
2018-09-30T10:24:09.405Z,2351
2018-09-30T10:25:10.800Z,2385
2018-09-30T10:26:12.186Z,2340
2018-09-30T10:27:14.186Z,2323
2018-09-30T10:28:15.569Z,2441
2018-09-30T10:29:16.949Z,2407
2018-09-30T10:30:18.888Z,2368
2018-09-30T10:31:20.271Z,2351
2018-09-30T10:32:21.654Z,2430
2018-09-30T10:33:24.483Z,2407
2018-09-30T10:34:25.866Z,2356
2018-09-30T10:35:27.252Z,2373
2018-09-30T10:36:28.637Z,2334
2018-09-30T10:37:30.026Z,2289
2018-09-30T10:38:31.501Z,2356
2018-09-30T10:39:32.777Z,2401
2018-09-30T10:40:34.139Z,2475
2018-09-30T10:41:35.525Z,2514
2018-09-30T10:42:36.904Z,2475
2018-09-30T10:43:38.300Z,2396
2018-09-30T10:44:39.686Z,2351
2018-09-30T10:45:41.084Z,2407
2018-09-30T10:46:48.836Z,2430
2018-09-30T10:47:49.739Z,2385
2018-09-30T10:48:51.130Z,2418
2018-09-30T10:49:52.525Z,2458
2018-09-30T10:50:53.904Z,2424
2018-09-30T10:51:55.302Z,2446
2018-09-30T10:52:56.699Z,2441
2018-09-30T10:53:58.090Z,2475
2018-09-30T10:54:59.462Z,2463
2018-09-30T10:56:00.855Z,2497
2018-09-30T10:57:02.246Z,2407
2018-09-30T10:58:03.626Z,2396
2018-09-30T10:59:05.000Z,2463
2018-09-30T11:00:06.381Z,2520
2018-09-30T11:01:07.762Z,2508
2018-09-30T11:02:09.152Z,2424
2018-09-30T11:03:10.542Z,2480
2018-09-30T11:04:11.930Z,2385
2018-09-30T11:05:13.317Z,2328
2018-09-30T11:06:14.721Z,2289
2018-09-30T11:07:16.220Z,2289
2018-09-30T11:08:17.608Z,2446
2018-09-30T11:09:18.982Z,2458
2018-09-30T11:10:20.376Z,2435
2018-09-30T11:11:21.762Z,2480
2018-09-30T11:12:23.155Z,2497
2018-09-30T11:13:24.531Z,2424
2018-09-30T11:14:25.911Z,2435
2018-09-30T11:15:27.292Z,2441
2018-09-30T11:16:28.697Z,2441
2018-09-30T11:17:30.077Z,2413
2018-09-30T11:18:32.711Z,2390
2018-09-30T11:19:34.099Z,2340
2018-09-30T11:20:35.476Z,2385
2018-09-30T11:21:36.853Z,2368
2018-09-30T11:22:38.352Z,2373
2018-09-30T11:23:39.601Z,2463
2018-09-30T11:24:40.982Z,2458
2018-09-30T11:25:42.365Z,2486
2018-09-30T11:26:43.782Z,2576
2018-09-30T11:27:45.165Z,2615
2018-09-30T11:28:46.550Z,2857
2018-09-30T11:29:47.933Z,2435
2018-09-30T11:30:49.365Z,1513
2018-09-30T11:31:50.778Z,1192
2018-09-30T11:32:52.096Z,1164
2018-09-30T11:33:53.492Z,1158
2018-09-30T11:34:54.877Z,1153
2018-09-30T11:35:56.258Z,1153
2018-09-30T11:36:57.645Z,1153
2018-09-30T11:37:59.036Z,1158
2018-09-30T11:39:00.418Z,1170
2018-09-30T11:40:01.803Z,1164
2018-09-30T11:41:03.193Z,1164
2018-09-30T11:42:04.581Z,1170
2018-09-30T11:43:05.961Z,1164
2018-09-30T11:44:08.013Z,1164
2018-09-30T11:45:09.393Z,1170
2018-09-30T11:46:10.796Z,1175
2018-09-30T11:47:12.190Z,1186
2018-09-30T11:48:13.618Z,1198
2018-09-30T11:49:15.022Z,1209
2018-09-30T11:50:16.406Z,1220
2018-09-30T11:51:17.792Z,1220
2018-09-30T11:52:19.183Z,1226
2018-09-30T11:53:20.561Z,1231
2018-09-30T11:54:21.942Z,1231
2018-09-30T11:55:23.335Z,1226
2018-09-30T11:56:24.716Z,1231
2018-09-30T11:57:26.101Z,1231
2018-09-30T11:58:27.487Z,1231
2018-09-30T11:59:29.678Z,1237
2018-09-30T12:00:31.052Z,1237
2018-09-30T12:01:32.447Z,1237
2018-09-30T12:02:33.837Z,1231
2018-09-30T12:03:36.602Z,1226
2018-09-30T12:04:38.080Z,1226
2018-09-30T12:05:39.456Z,1220
2018-09-30T12:06:40.853Z,1226
2018-09-30T12:07:42.236Z,1226
2018-09-30T12:08:44.256Z,1231
2018-09-30T12:09:45.642Z,1226
2018-09-30T12:10:47.617Z,1226
2018-09-30T12:11:49.023Z,1226
2018-09-30T12:12:51.665Z,1226
2018-09-30T12:13:53.042Z,1226
2018-09-30T12:14:54.431Z,1209
2018-09-30T12:15:55.812Z,1209
2018-09-30T12:16:57.202Z,1209
2018-09-30T12:17:58.581Z,1203
2018-09-30T12:18:59.976Z,1209
2018-09-30T12:20:01.360Z,1220
2018-09-30T12:21:02.738Z,1248
2018-09-30T12:22:04.120Z,1271
2018-09-30T12:23:05.521Z,1316
2018-09-30T12:24:06.942Z,1327
2018-09-30T12:25:08.320Z,1333
2018-09-30T12:26:09.706Z,1395
2018-09-30T12:27:11.087Z,1462
2018-09-30T12:28:12.476Z,1546
2018-09-30T12:29:13.849Z,1620
2018-09-30T12:30:15.249Z,1721
2018-09-30T12:31:16.628Z,1839
2018-09-30T12:32:18.006Z,1788
2018-09-30T12:33:19.383Z,1631
2018-09-30T12:34:20.772Z,1490
2018-09-30T12:35:22.155Z,1406
2018-09-30T12:36:23.543Z,1350
2018-09-30T12:37:24.922Z,1316
2018-09-30T12:38:26.308Z,1288
2018-09-30T12:39:27.749Z,1276
2018-09-30T12:40:29.084Z,1260
2018-09-30T12:41:30.471Z,1260
2018-09-30T12:42:31.847Z,1243
2018-09-30T12:43:33.232Z,1299
2018-09-30T12:44:34.622Z,1411
2018-09-30T12:45:36.004Z,1389
2018-09-30T12:46:37.376Z,1310
2018-09-30T12:47:38.767Z,1288
2018-09-30T12:48:40.146Z,1271
2018-09-30T12:49:41.542Z,1271
2018-09-30T12:50:42.912Z,1293
2018-09-30T12:51:44.333Z,1282
2018-09-30T12:52:45.727Z,1271
2018-09-30T12:53:47.102Z,1316
2018-09-30T12:54:48.489Z,1288
2018-09-30T12:55:49.881Z,1231
2018-09-30T12:56:51.277Z,1254
2018-09-30T12:57:52.702Z,1305
2018-09-30T12:58:54.042Z,1293
2018-09-30T12:59:55.440Z,1260
2018-09-30T13:00:56.825Z,1400
2018-09-30T13:01:58.199Z,1451
2018-09-30T13:02:59.596Z,1350
2018-09-30T13:04:00.978Z,1265
2018-09-30T13:05:02.357Z,1310
2018-09-30T13:06:03.729Z,1293
2018-09-30T13:07:05.116Z,1293
2018-09-30T13:08:06.506Z,1327
2018-09-30T13:09:07.886Z,1338
2018-09-30T13:10:09.269Z,1383
2018-09-30T13:11:10.641Z,1383
2018-09-30T13:12:12.018Z,1333
2018-09-30T13:13:13.404Z,1338
2018-09-30T13:14:14.785Z,1366
2018-09-30T13:15:16.178Z,1338
2018-09-30T13:16:18.527Z,1462
2018-09-30T13:17:19.924Z,1569
2018-09-30T13:18:21.320Z,1496
2018-09-30T13:19:22.711Z,1355
2018-09-30T13:20:24.121Z,1327
2018-09-30T13:21:25.493Z,1411
2018-09-30T13:22:26.891Z,1558
2018-09-30T13:23:28.283Z,1603
2018-09-30T13:24:29.656Z,1631
2018-09-30T13:25:31.041Z,1653
2018-09-30T13:26:32.422Z,1603
2018-09-30T13:27:33.804Z,1620
2018-09-30T13:28:35.197Z,1676
2018-09-30T13:29:36.588Z,1665
2018-09-30T13:30:37.966Z,1597
2018-09-30T13:31:39.370Z,1597
2018-09-30T13:32:43.362Z,1636
2018-09-30T13:33:44.746Z,1687
2018-09-30T13:34:46.153Z,1676
2018-09-30T13:35:47.538Z,1681
2018-09-30T13:36:48.932Z,1800
2018-09-30T13:37:50.325Z,1873
2018-09-30T13:38:51.713Z,1867
2018-09-30T13:39:53.114Z,1811
2018-09-30T13:40:54.625Z,1901
2018-09-30T13:41:55.840Z,1991
2018-09-30T13:42:57.218Z,2053
2018-09-30T13:43:58.629Z,1980
2018-09-30T13:45:00.012Z,1794
2018-09-30T13:46:01.461Z,1687
2018-09-30T13:47:02.795Z,1788
2018-09-30T13:48:04.186Z,1957
2018-09-30T13:49:05.567Z,1771
2018-09-30T13:50:06.963Z,1721
2018-09-30T13:51:08.395Z,1828
2018-09-30T13:52:09.718Z,1805
2018-09-30T13:53:11.099Z,1670
2018-09-30T13:54:12.471Z,1687
2018-09-30T13:55:13.875Z,1608
2018-09-30T13:56:15.263Z,1485
2018-09-30T13:57:16.647Z,1468
2018-09-30T13:58:18.083Z,1445
2018-09-30T13:59:19.411Z,1293
2018-09-30T14:00:20.798Z,1260
2018-09-30T14:01:22.201Z,1282
2018-09-30T14:02:23.584Z,1215
2018-09-30T14:03:25.047Z,1164
2018-09-30T14:04:26.439Z,1198
2018-09-30T14:05:27.821Z,1141
2018-09-30T14:06:29.202Z,1035
2018-09-30T14:07:32.603Z,1035
2018-09-30T14:08:33.978Z,1108
2018-09-30T14:09:35.363Z,1147
2018-09-30T14:10:36.735Z,990
2018-09-30T14:11:38.122Z,888
2018-09-30T14:12:39.492Z,781
2018-09-30T14:13:40.867Z,708
2018-09-30T14:14:42.253Z,652
2018-09-30T14:15:43.632Z,618